Time;durP1;ratioP1;P1;durP2;ratioP2;P2;SDS_P1;SDS_P2;PMS_P1;PMS_P2;Temp;Humidity;BMP_temperature;BMP_pressure;BME280_temperature;BME280_humidity;BME280_pressure;Samples;Min_cycle;Max_cycle;Signal;HPM_P1;HPM_P2
2021/07/07 00:01:27;;;;;;;1.67;1.00;;;28.30;51.70;;;;;;5006518;28;20518;-72
2021/07/07 00:03:55;;;;;;;2.60;1.10;;;28.30;51.70;;;;;;5006250;28;20440;-72
2021/07/07 00:06:24;;;;;;;4.73;0.90;;;28.30;51.70;;;;;;5005910;28;20425;-72
2021/07/07 00:08:52;;;;;;;7.33;1.40;;;28.30;51.60;;;;;;5023258;28;20432;-72
2021/07/07 00:11:20;;;;;;;1.03;0.90;;;28.30;51.80;;;;;;5026072;28;20426;-72
2021/07/07 00:13:48;;;;;;;6.13;0.90;;;28.20;51.50;;;;;;5025381;28;20505;-72
2021/07/07 00:16:16;;;;;;;1.83;0.90;;;28.20;51.80;;;;;;5025920;28;20467;-73
2021/07/07 00:18:44;;;;;;;3.27;0.90;;;28.20;51.70;;;;;;5025545;28;20420;-72
2021/07/07 00:21:11;;;;;;;2.00;1.00;;;28.20;51.80;;;;;;5025446;28;20509;-73
2021/07/07 00:23:41;;;;;;;1.63;0.97;;;28.20;51.80;;;;;;5025396;28;20439;-73
2021/07/07 00:26:12;;;;;;;0.93;0.90;;;28.20;51.70;;;;;;5025519;28;20443;-73
2021/07/07 00:28:41;;;;;;;1.37;1.27;;;28.10;51.70;;;;;;5024834;28;20414;-73
2021/07/07 00:31:09;;;;;;;4.53;0.93;;;28.10;52.00;;;;;;5024899;28;20454;-73
2021/07/07 00:33:38;;;;;;;2.70;1.10;;;28.10;51.90;;;;;;5025217;28;20424;-73
2021/07/07 00:36:06;;;;;;;5.00;1.23;;;28.10;52.40;;;;;;5024956;28;20474;-73
2021/07/07 00:38:34;;;;;;;2.30;1.00;;;28.10;51.80;;;;;;5024985;28;20528;-72
2021/07/07 00:41:05;;;;;;;2.97;0.97;;;28.10;52.00;;;;;;5025506;28;20520;-73
2021/07/07 00:43:33;;;;;;;1.33;1.10;;;28.10;52.10;;;;;;5025228;28;20414;-72
2021/07/07 00:46:02;;;;;;;0.80;0.80;;;28.00;52.00;;;;;;5025146;28;20494;-72
2021/07/07 00:48:30;;;;;;;2.20;0.93;;;28.00;52.00;;;;;;5025459;28;20422;-72
2021/07/07 00:50:59;;;;;;;6.10;1.20;;;28.00;51.90;;;;;;5024828;28;20435;-73
2021/07/07 00:53:27;;;;;;;4.97;1.03;;;28.00;52.00;;;;;;5025235;28;20518;-73
2021/07/07 00:55:55;;;;;;;4.83;1.20;;;28.00;51.90;;;;;;5025482;28;20533;-73
2021/07/07 00:58:24;;;;;;;0.80;0.80;;;28.00;52.00;;;;;;5025243;28;20493;-72
2021/07/07 01:00:52;;;;;;;2.47;0.90;;;28.00;51.90;;;;;;5025387;28;20443;-72
2021/07/07 01:03:20;;;;;;;2.63;1.07;;;28.00;52.00;;;;;;5025134;28;20531;-72
2021/07/07 01:05:48;;;;;;;1.67;1.00;;;27.90;52.00;;;;;;5024534;28;20431;-72
2021/07/07 01:08:16;;;;;;;1.23;1.00;;;27.80;52.10;;;;;;5025043;28;20684;-72
2021/07/07 01:10:44;;;;;;;2.13;1.10;;;27.90;52.20;;;;;;5024544;28;20539;-73
2021/07/07 01:13:13;;;;;;;5.40;0.90;;;27.80;52.20;;;;;;5025152;28;20417;-72
2021/07/07 01:15:43;;;;;;;2.53;0.87;;;27.80;52.20;;;;;;5024870;28;20612;-72
2021/07/07 01:18:11;;;;;;;1.33;0.90;;;27.90;52.10;;;;;;5024589;28;20454;-72
2021/07/07 01:20:40;;;;;;;1.27;0.90;;;27.90;52.10;;;;;;5024413;28;20452;-72
2021/07/07 01:23:09;;;;;;;1.97;1.30;;;27.90;52.20;;;;;;5024966;28;20507;-72
2021/07/07 01:25:38;;;;;;;0.90;0.90;;;27.90;52.80;;;;;;5023531;28;20534;-72
2021/07/07 01:28:06;;;;;;;2.50;0.90;;;27.90;52.00;;;;;;5024723;28;20499;-72
2021/07/07 01:30:34;;;;;;;2.03;1.00;;;27.80;52.30;;;;;;5027895;28;20406;-72
2021/07/07 01:33:02;;;;;;;1.90;1.10;;;27.80;52.00;;;;;;5023849;28;20416;-72
2021/07/07 01:35:30;;;;;;;0.80;0.80;;;27.80;52.00;;;;;;5022172;28;20541;-72
2021/07/07 01:37:58;;;;;;;0.80;0.80;;;27.80;52.30;;;;;;5022943;28;20575;-72
2021/07/07 01:40:27;;;;;;;1.60;0.90;;;27.80;52.20;;;;;;5015507;28;20751;-72
2021/07/07 01:42:55;;;;;;;1.10;1.00;;;27.80;52.20;;;;;;5015273;28;20422;-71
2021/07/07 01:45:23;;;;;;;1.50;1.00;;;27.80;52.10;;;;;;5015143;28;20422;-72
2021/07/07 01:47:52;;;;;;;1.37;1.10;;;27.80;52.40;;;;;;5022333;28;20483;-71
2021/07/07 01:50:21;;;;;;;1.00;0.90;;;27.80;52.10;;;;;;5026333;28;20488;-72
2021/07/07 01:52:49;;;;;;;1.10;1.00;;;27.80;52.60;;;;;;5041826;28;20492;-72
2021/07/07 01:55:17;;;;;;;1.10;1.00;;;27.80;52.10;;;;;;5043265;28;20504;-72
2021/07/07 01:57:46;;;;;;;1.27;1.00;;;27.70;52.20;;;;;;5044182;28;20459;-72
2021/07/07 02:00:17;;;;;;;1.63;1.10;;;27.70;52.30;;;;;;5044017;28;20442;-73
2021/07/07 02:02:45;;;;;;;1.00;0.90;;;27.70;52.40;;;;;;5043433;28;20496;-72
2021/07/07 02:05:13;;;;;;;1.20;0.93;;;27.70;52.20;;;;;;5044157;28;20504;-72
2021/07/07 02:07:43;;;;;;;3.17;0.90;;;27.70;52.30;;;;;;5004278;28;20411;-72
2021/07/07 02:10:13;;;;;;;2.50;0.90;;;27.70;52.20;;;;;;5004705;28;20539;-73
2021/07/07 02:12:41;;;;;;;1.60;1.00;;;27.70;52.20;;;;;;5004066;28;20490;-72
2021/07/07 02:15:11;;;;;;;1.77;0.80;;;27.70;52.10;;;;;;5004287;28;20487;-72
2021/07/07 02:17:39;;;;;;;2.93;1.27;;;27.70;52.20;;;;;;5004316;28;20490;-72
2021/07/07 02:20:08;;;;;;;2.47;1.00;;;27.70;52.20;;;;;;5004663;28;20455;-72
2021/07/07 02:22:36;;;;;;;1.10;1.00;;;27.70;52.10;;;;;;5004242;28;20465;-72
2021/07/07 02:25:04;;;;;;;1.00;1.00;;;27.60;52.20;;;;;;5004426;28;20529;-72
2021/07/07 02:27:32;;;;;;;0.83;0.83;;;27.60;52.20;;;;;;5004351;28;20500;-73
2021/07/07 02:30:00;;;;;;;2.13;1.10;;;27.60;52.30;;;;;;5004222;28;20450;-73
2021/07/07 02:32:29;;;;;;;1.37;1.10;;;27.60;52.20;;;;;;5003386;28;20436;-73
2021/07/07 02:34:58;;;;;;;1.33;0.93;;;27.60;52.20;;;;;;5003145;28;20415;-73
2021/07/07 02:37:26;;;;;;;2.03;0.80;;;27.60;52.20;;;;;;5007272;28;20454;-73
2021/07/07 02:39:54;;;;;;;1.23;0.80;;;27.60;52.20;;;;;;5007716;28;20440;-72
2021/07/07 02:42:22;;;;;;;4.17;1.20;;;27.60;52.30;;;;;;5007945;28;20495;-72
2021/07/07 02:44:49;;;;;;;1.23;1.13;;;27.60;52.20;;;;;;5008201;28;20534;-72
2021/07/07 02:47:17;;;;;;;0.93;0.93;;;27.60;52.20;;;;;;5008072;28;20455;-72
2021/07/07 02:49:47;;;;;;;0.93;0.80;;;27.50;52.40;;;;;;5008262;28;20427;-73
2021/07/07 02:52:15;;;;;;;2.57;0.90;;;27.60;52.30;;;;;;5007918;28;20531;-72
2021/07/07 02:54:42;;;;;;;2.03;1.20;;;27.50;52.30;;;;;;5007773;28;20440;-72
2021/07/07 02:57:10;;;;;;;1.10;0.93;;;27.60;52.20;;;;;;5007561;28;20556;-72
2021/07/07 02:59:38;;;;;;;1.00;0.90;;;27.60;52.20;;;;;;5007882;28;20428;-72
2021/07/07 03:02:06;;;;;;;1.07;1.00;;;27.50;52.40;;;;;;5007839;28;20506;-72
2021/07/07 03:04:34;;;;;;;0.80;0.80;;;27.50;52.40;;;;;;5007210;28;20430;-72
2021/07/07 03:07:04;;;;;;;1.53;0.97;;;27.50;52.40;;;;;;5007792;28;20434;-73
2021/07/07 03:09:31;;;;;;;1.23;1.00;;;27.50;52.20;;;;;;5007295;28;20421;-73
2021/07/07 03:11:59;;;;;;;2.03;0.90;;;27.50;52.30;;;;;;5007371;28;20502;-73
2021/07/07 03:14:27;;;;;;;1.00;0.90;;;27.50;52.10;;;;;;5007211;28;20411;-72
2021/07/07 03:16:55;;;;;;;1.37;1.00;;;27.60;52.10;;;;;;5007285;28;20526;-72
2021/07/07 03:19:26;;;;;;;1.00;1.00;;;27.50;52.40;;;;;;5006951;28;20444;-72
2021/07/07 03:21:53;;;;;;;1.53;1.10;;;27.50;52.30;;;;;;5007296;28;20512;-72
2021/07/07 03:24:23;;;;;;;0.87;0.87;;;27.50;52.40;;;;;;5007500;28;20481;-73
2021/07/07 03:26:50;;;;;;;0.90;0.90;;;27.50;52.30;;;;;;5007074;28;20514;-73
2021/07/07 03:29:18;;;;;;;1.00;0.90;;;27.40;52.40;;;;;;5007373;28;20447;-72
2021/07/07 03:31:46;;;;;;;1.47;0.90;;;27.40;52.60;;;;;;5006987;28;20539;-73
2021/07/07 03:34:14;;;;;;;2.00;0.97;;;27.40;52.50;;;;;;5007037;28;20437;-72
2021/07/07 03:36:42;;;;;;;0.97;0.93;;;27.30;52.50;;;;;;5007139;28;20483;-72
2021/07/07 03:39:10;;;;;;;1.73;1.20;;;27.40;52.30;;;;;;5006603;28;20531;-72
2021/07/07 03:41:39;;;;;;;2.93;0.80;;;27.40;52.40;;;;;;5006878;28;20543;-72
2021/07/07 03:44:07;;;;;;;1.03;0.90;;;27.40;52.50;;;;;;5006515;28;20531;-72
2021/07/07 03:46:35;;;;;;;1.00;0.90;;;27.30;52.50;;;;;;5006194;28;20525;-72
2021/07/07 03:49:03;;;;;;;0.90;0.90;;;27.40;52.30;;;;;;5006314;28;20407;-73
2021/07/07 03:51:31;;;;;;;1.20;0.97;;;27.30;52.40;;;;;;5006686;28;20510;-72
2021/07/07 03:54:01;;;;;;;1.00;0.93;;;27.40;52.50;;;;;;5007130;28;20435;-73
2021/07/07 03:56:28;;;;;;;1.00;0.90;;;27.30;52.40;;;;;;5006973;28;20506;-73
2021/07/07 03:58:58;;;;;;;0.87;0.87;;;27.30;52.50;;;;;;5006689;28;20476;-73
2021/07/07 04:01:26;;;;;;;1.17;1.00;;;27.30;52.50;;;;;;5008994;28;20504;-73
2021/07/07 04:03:53;;;;;;;0.70;0.70;;;27.30;52.40;;;;;;5035119;28;20401;-73
2021/07/07 04:06:21;;;;;;;1.27;0.97;;;27.40;52.30;;;;;;5021192;28;20450;-73
2021/07/07 04:08:49;;;;;;;0.93;0.93;;;27.30;52.40;;;;;;5017007;28;20443;-73
2021/07/07 04:11:17;;;;;;;4.03;0.83;;;27.40;52.50;;;;;;5020155;28;20433;-73
2021/07/07 04:13:45;;;;;;;1.77;1.20;;;27.30;52.60;;;;;;5025907;28;20435;-73
2021/07/07 04:16:14;;;;;;;1.27;0.90;;;27.30;52.50;;;;;;5025513;28;20410;-73
2021/07/07 04:18:42;;;;;;;3.90;1.00;;;27.30;52.70;;;;;;5025561;28;20478;-73
2021/07/07 04:21:10;;;;;;;1.53;1.20;;;27.30;52.40;;;;;;5025190;28;20449;-73
2021/07/07 04:23:38;;;;;;;3.50;1.07;;;27.30;52.50;;;;;;5025763;28;20481;-73
2021/07/07 04:26:06;;;;;;;4.03;1.00;;;27.30;52.40;;;;;;5025816;28;20457;-73
2021/07/07 04:28:35;;;;;;;1.10;1.00;;;27.30;52.40;;;;;;5026288;28;20525;-73
2021/07/07 04:31:03;;;;;;;1.90;0.80;;;27.40;52.40;;;;;;5025876;28;20538;-73
2021/07/07 04:33:32;;;;;;;2.10;1.10;;;27.40;52.30;;;;;;5025720;28;20410;-73
2021/07/07 04:36:00;;;;;;;1.90;1.10;;;27.30;52.80;;;;;;5025720;28;20509;-73
2021/07/07 04:38:28;;;;;;;1.10;1.00;;;27.30;52.40;;;;;;5025445;28;20504;-73
2021/07/07 04:40:55;;;;;;;5.00;1.20;;;27.40;52.20;;;;;;5008566;28;20438;-73
2021/07/07 04:43:23;;;;;;;0.90;0.90;;;27.30;52.40;;;;;;5005704;28;20403;-73
2021/07/07 04:45:51;;;;;;;4.17;0.90;;;27.30;52.50;;;;;;5005339;28;20511;-74
2021/07/07 04:48:19;;;;;;;2.50;1.33;;;27.30;52.20;;;;;;5005708;28;20524;-73
2021/07/07 04:50:48;;;;;;;1.00;1.00;;;27.30;52.30;;;;;;5005569;28;20475;-74
2021/07/07 04:53:16;;;;;;;1.20;1.07;;;27.40;52.20;;;;;;5004941;28;20444;-73
2021/07/07 04:55:44;;;;;;;1.00;1.00;;;27.40;52.10;;;;;;5005177;28;20460;-73
2021/07/07 04:58:12;;;;;;;1.10;0.73;;;27.30;52.40;;;;;;5005030;28;20579;-73
2021/07/07 05:00:40;;;;;;;0.90;0.90;;;27.30;52.40;;;;;;5005522;28;20415;-73
2021/07/07 05:03:07;;;;;;;0.90;0.90;;;27.30;52.30;;;;;;5005226;28;20487;-73
2021/07/07 05:05:35;;;;;;;0.80;0.80;;;27.40;52.30;;;;;;5005914;28;20518;-74
2021/07/07 05:08:06;;;;;;;0.90;0.90;;;27.40;52.10;;;;;;5004749;28;20419;-73
2021/07/07 05:10:34;;;;;;;0.80;0.80;;;27.30;52.10;;;;;;5005343;28;20440;-73
2021/07/07 05:13:04;;;;;;;2.00;1.00;;;27.40;52.30;;;;;;5005069;28;20485;-73
2021/07/07 05:15:36;;;;;;;1.03;0.93;;;27.40;52.20;;;;;;5004857;28;20440;-73
2021/07/07 05:18:06;;;;;;;1.57;1.20;;;27.40;52.20;;;;;;5005163;28;20419;-73
2021/07/07 05:20:34;;;;;;;3.90;1.10;;;27.30;52.10;;;;;;5005274;28;20439;-74
2021/07/07 05:23:06;;;;;;;0.90;0.90;;;27.40;52.00;;;;;;5005238;28;20433;-73
2021/07/07 05:25:35;;;;;;;4.50;1.27;;;27.40;51.90;;;;;;5005095;28;20419;-73
2021/07/07 05:28:04;;;;;;;1.10;0.97;;;27.40;51.90;;;;;;5005015;28;20459;-73
2021/07/07 05:30:32;;;;;;;1.00;0.90;;;27.40;52.00;;;;;;5004804;28;20426;-73
2021/07/07 05:33:01;;;;;;;4.83;1.30;;;27.40;51.90;;;;;;5005159;28;20415;-73
2021/07/07 05:35:28;;;;;;;0.80;0.80;;;27.40;51.90;;;;;;5004907;28;20451;-73
2021/07/07 05:37:56;;;;;;;1.40;0.87;;;27.50;52.10;;;;;;5004934;28;20450;-73
2021/07/07 05:40:25;;;;;;;0.90;0.90;;;27.40;52.10;;;;;;5004254;28;20459;-73
2021/07/07 05:42:54;;;;;;;1.00;1.00;;;27.40;52.10;;;;;;5004539;28;20531;-73
2021/07/07 05:45:26;;;;;;;1.10;1.00;;;27.40;52.00;;;;;;5004955;28;20514;-73
2021/07/07 05:47:54;;;;;;;1.77;1.10;;;27.50;52.10;;;;;;5004964;28;20513;-73
2021/07/07 05:50:23;;;;;;;0.97;0.97;;;27.50;51.90;;;;;;5004714;28;20443;-73
2021/07/07 05:52:51;;;;;;;6.83;0.90;;;27.50;52.00;;;;;;5004660;28;20519;-73
2021/07/07 05:55:20;;;;;;;1.67;1.07;;;27.50;51.70;;;;;;5004764;28;20477;-73
2021/07/07 05:57:48;;;;;;;0.90;0.90;;;27.60;51.60;;;;;;5004843;28;20415;-73
2021/07/07 06:00:20;;;;;;;0.90;0.90;;;27.60;51.50;;;;;;5004550;28;20545;-73
2021/07/07 06:02:48;;;;;;;0.90;0.90;;;27.60;51.70;;;;;;5004602;28;20451;-73
2021/07/07 06:05:16;;;;;;;1.00;0.90;;;27.70;51.60;;;;;;5004459;28;20431;-73
2021/07/07 06:07:45;;;;;;;1.33;1.10;;;27.80;51.40;;;;;;5005234;28;20407;-73
2021/07/07 06:10:15;;;;;;;1.40;0.90;;;27.80;51.10;;;;;;5004036;28;20476;-73
2021/07/07 06:12:43;;;;;;;1.37;1.10;;;27.90;51.00;;;;;;5024005;28;20543;-73
2021/07/07 06:15:12;;;;;;;1.00;1.00;;;27.90;51.00;;;;;;5024517;28;20414;-73
2021/07/07 06:17:42;;;;;;;2.20;0.80;;;27.90;51.00;;;;;;5024046;28;20480;-73
2021/07/07 06:20:12;;;;;;;1.20;0.90;;;27.90;51.00;;;;;;5024384;28;20474;-73
2021/07/07 06:22:41;;;;;;;2.60;0.90;;;27.90;51.00;;;;;;5023625;28;20443;-73
2021/07/07 06:25:10;;;;;;;1.30;1.03;;;27.90;51.00;;;;;;5023685;28;20410;-73
2021/07/07 06:27:39;;;;;;;1.33;1.10;;;27.90;50.90;;;;;;5023795;28;20476;-74
2021/07/07 06:30:09;;;;;;;3.40;1.00;;;28.00;51.10;;;;;;5024021;28;20414;-74
2021/07/07 06:32:37;;;;;;;1.53;0.87;;;27.90;51.10;;;;;;5023684;28;20528;-74
2021/07/07 06:35:07;;;;;;;6.23;0.87;;;27.90;51.30;;;;;;5023903;28;20479;-73
2021/07/07 06:37:35;;;;;;;2.37;0.90;;;27.90;51.00;;;;;;5023829;28;20443;-73
2021/07/07 06:40:02;;;;;;;0.90;0.80;;;27.90;51.00;;;;;;5024156;28;20542;-73
2021/07/07 06:42:30;;;;;;;1.60;0.83;;;27.90;51.10;;;;;;5023472;28;20470;-73
2021/07/07 06:44:58;;;;;;;1.00;0.90;;;27.90;51.00;;;;;;5022752;28;20550;-73
2021/07/07 06:47:26;;;;;;;1.17;1.03;;;28.00;51.10;;;;;;5023561;28;20447;-73
2021/07/07 06:49:54;;;;;;;1.10;1.00;;;28.00;50.90;;;;;;5023947;28;20417;-73
2021/07/07 06:52:24;;;;;;;1.83;1.03;;;28.00;50.80;;;;;;5023453;28;20513;-73
2021/07/07 06:54:51;;;;;;;1.20;1.10;;;28.10;50.80;;;;;;5024378;28;20501;-73
2021/07/07 06:57:19;;;;;;;1.53;1.00;;;28.10;50.80;;;;;;5023615;28;20510;-73
2021/07/07 06:59:47;;;;;;;1.10;1.10;;;28.20;50.70;;;;;;5023574;28;20452;-73
2021/07/07 07:02:15;;;;;;;1.27;0.80;;;28.10;50.70;;;;;;5023540;28;20507;-73
2021/07/07 07:04:43;;;;;;;0.90;0.90;;;28.30;50.70;;;;;;5023490;28;20441;-74
2021/07/07 07:07:11;;;;;;;1.10;1.00;;;28.30;50.70;;;;;;5023569;28;20493;-74
2021/07/07 07:09:40;;;;;;;0.83;0.83;;;28.30;50.50;;;;;;5023463;28;20418;-74
2021/07/07 07:12:08;;;;;;;0.90;0.90;;;28.30;50.40;;;;;;5008092;28;20479;-74
2021/07/07 07:14:36;;;;;;;1.63;0.97;;;28.40;50.20;;;;;;5019011;28;20508;-74
2021/07/07 07:17:04;;;;;;;1.00;0.90;;;28.40;50.30;;;;;;5034803;28;20446;-74
2021/07/07 07:19:31;;;;;;;1.10;1.00;;;28.40;50.00;;;;;;5028962;28;20513;-74
2021/07/07 07:21:59;;;;;;;1.17;1.07;;;28.50;50.20;;;;;;5038810;28;20474;-73
2021/07/07 07:24:30;;;;;;;1.10;0.90;;;28.50;50.20;;;;;;5040866;28;20505;-73
2021/07/07 07:27:00;;;;;;;3.03;0.93;;;28.50;50.00;;;;;;5047343;28;20434;-73
2021/07/07 07:29:28;;;;;;;0.97;0.90;;;28.60;49.80;;;;;;5046952;28;20435;-73
2021/07/07 07:31:55;;;;;;;0.80;0.80;;;28.70;49.80;;;;;;5046518;28;20477;-73
2021/07/07 07:34:23;;;;;;;1.20;1.10;;;28.70;50.00;;;;;;5030324;28;20529;-73
2021/07/07 07:36:58;;;;;;;1.10;1.10;;;28.70;49.80;;;;;;5035681;28;20446;-75
2021/07/07 07:39:28;;;;;;;1.00;0.87;;;28.70;49.80;;;;;;5040348;28;20400;-74
2021/07/07 07:42:00;;;;;;;1.97;0.83;;;28.80;49.70;;;;;;5047014;28;20520;-74
2021/07/07 07:44:28;;;;;;;0.87;0.87;;;28.90;49.70;;;;;;5046460;28;20421;-74
2021/07/07 07:46:58;;;;;;;8.10;1.00;;;29.00;49.80;;;;;;5031409;28;20475;-74
2021/07/07 07:49:26;;;;;;;2.53;1.00;;;29.10;49.50;;;;;;5026710;28;20414;-74
2021/07/07 07:51:54;;;;;;;1.00;0.90;;;29.20;49.30;;;;;;5026299;28;20467;-74
2021/07/07 07:54:22;;;;;;;1.17;1.07;;;29.30;49.20;;;;;;5026811;28;20453;-74
2021/07/07 07:56:50;;;;;;;3.33;0.97;;;29.30;49.20;;;;;;5026210;28;20519;-74
2021/07/07 07:59:19;;;;;;;1.60;0.93;;;29.50;49.30;;;;;;5026075;28;20534;-74
2021/07/07 08:01:49;;;;;;;1.13;0.97;;;29.70;48.90;;;;;;5023436;28;20539;-74
2021/07/07 08:04:19;;;;;;;1.40;1.30;;;29.80;48.30;;;;;;5026423;28;20467;-74
2021/07/07 08:06:47;;;;;;;1.20;1.10;;;29.80;48.40;;;;;;5026616;28;20530;-74
2021/07/07 08:09:15;;;;;;;1.67;1.10;;;29.90;48.00;;;;;;5026265;28;20467;-74
2021/07/07 08:11:43;;;;;;;2.33;1.03;;;29.90;48.00;;;;;;5015449;28;20486;-74
2021/07/07 08:14:11;;;;;;;1.50;0.90;;;30.00;47.50;;;;;;5006661;28;20403;-74
2021/07/07 08:16:40;;;;;;;1.30;1.03;;;30.00;47.60;;;;;;5018855;28;20447;-74
2021/07/07 08:19:08;;;;;;;1.37;1.10;;;30.00;47.30;;;;;;5042528;28;20523;-75
2021/07/07 08:21:36;;;;;;;1.23;1.10;;;30.00;47.50;;;;;;5041638;28;20557;-75
2021/07/07 08:24:07;;;;;;;1.43;1.00;;;30.00;47.30;;;;;;5020847;28;20415;-74
2021/07/07 08:26:34;;;;;;;1.77;1.13;;;30.10;47.20;;;;;;5016272;28;20465;-74
2021/07/07 08:29:02;;;;;;;1.10;1.00;;;30.20;47.10;;;;;;5014364;28;20418;-74
2021/07/07 08:31:30;;;;;;;1.20;1.10;;;30.20;47.10;;;;;;5025430;28;20436;-74
2021/07/07 08:34:00;;;;;;;1.30;1.07;;;30.30;47.10;;;;;;5025785;28;20414;-74
2021/07/07 08:36:29;;;;;;;1.13;1.10;;;30.40;46.70;;;;;;5026451;28;20463;-74
2021/07/07 08:38:57;;;;;;;1.17;1.07;;;30.40;46.70;;;;;;5018564;28;20499;-74
2021/07/07 08:41:29;;;;;;;1.57;1.10;;;30.50;46.50;;;;;;5016657;28;20478;-74
2021/07/07 08:43:56;;;;;;;1.90;1.00;;;30.50;46.50;;;;;;5018372;28;20503;-74
2021/07/07 08:46:24;;;;;;;1.53;1.27;;;30.60;46.40;;;;;;5019621;28;20423;-74
2021/07/07 08:48:52;;;;;;;2.00;1.00;;;30.60;46.20;;;;;;5025612;28;20707;-74
2021/07/07 08:51:21;;;;;;;1.40;1.30;;;30.80;46.20;;;;;;5013925;28;20460;-74
2021/07/07 08:53:49;;;;;;;1.30;1.00;;;30.90;46.20;;;;;;5013032;28;20541;-74
2021/07/07 08:56:17;;;;;;;0.87;0.87;;;31.00;46.10;;;;;;5011292;28;20494;-74
2021/07/07 08:58:45;;;;;;;1.23;0.90;;;30.90;45.90;;;;;;5018997;28;20458;-74
2021/07/07 09:01:13;;;;;;;1.07;1.03;;;31.10;45.80;;;;;;5015160;28;20504;-74
2021/07/07 09:03:43;;;;;;;1.17;1.07;;;31.10;45.80;;;;;;5015611;28;20428;-74
2021/07/07 09:06:11;;;;;;;1.17;0.90;;;31.10;45.40;;;;;;5015515;28;20428;-73
2021/07/07 09:08:45;;;;;;;1.20;1.10;;;31.30;45.40;;;;;;5015799;28;20441;-74
2021/07/07 09:11:18;;;;;;;2.40;1.07;;;31.30;45.30;;;;;;5014608;28;20440;-73
2021/07/07 09:13:46;;;;;;;1.83;1.10;;;31.30;45.20;;;;;;5013209;28;20440;-73
2021/07/07 09:16:15;;;;;;;1.13;1.03;;;31.40;45.20;;;;;;5014500;28;20455;-73
2021/07/07 09:18:44;;;;;;;2.83;0.90;;;31.40;44.90;;;;;;5015387;28;20439;-73
2021/07/07 09:21:25;;;;;;;1.20;1.10;;;31.40;44.80;;;;;;5014377;28;20527;-73
2021/07/07 09:23:55;;;;;;;1.53;1.20;;;31.50;44.90;;;;;;5014125;28;20443;-73
2021/07/07 09:26:30;;;;;;;1.27;1.17;;;31.50;44.40;;;;;;5013175;28;20436;-73
2021/07/07 09:28:58;;;;;;;1.33;1.20;;;31.50;44.60;;;;;;5012571;28;20444;-73
2021/07/07 09:31:31;;;;;;;5.80;1.40;;;31.50;44.20;;;;;;5014465;28;20429;-74
2021/07/07 09:34:14;;;;;;;2.57;1.20;;;31.60;44.50;;;;;;5016244;28;20440;-74
2021/07/07 09:36:44;;;;;;;1.23;1.03;;;31.50;44.30;;;;;;5015597;28;20468;-74
2021/07/07 09:39:13;;;;;;;1.87;1.10;;;31.50;44.50;;;;;;5012941;28;20441;-74
2021/07/07 09:41:41;;;;;;;0.90;0.90;;;31.50;44.50;;;;;;5013235;28;20452;-74
2021/07/07 09:44:10;;;;;;;1.30;1.20;;;31.60;44.40;;;;;;5014044;28;20495;-74
2021/07/07 09:46:38;;;;;;;2.40;1.00;;;31.60;44.50;;;;;;5015312;28;20421;-74
2021/07/07 09:49:06;;;;;;;2.20;1.20;;;31.60;44.30;;;;;;5015881;28;20441;-74
2021/07/07 09:51:34;;;;;;;2.20;1.73;;;31.70;44.40;;;;;;5013692;28;20518;-74
2021/07/07 09:54:03;;;;;;;2.93;1.30;;;31.80;44.30;;;;;;5013282;28;20543;-74
2021/07/07 09:56:33;;;;;;;0.97;0.97;;;31.90;44.20;;;;;;5016266;28;20547;-74
2021/07/07 09:59:01;;;;;;;4.00;1.63;;;31.90;44.10;;;;;;5013319;28;20528;-74
2021/07/07 10:01:29;;;;;;;1.30;1.20;;;31.80;44.00;;;;;;5014296;28;20469;-74
2021/07/07 10:03:57;;;;;;;1.10;1.10;;;31.80;43.90;;;;;;5014820;28;20437;-74
2021/07/07 10:06:26;;;;;;;3.07;1.20;;;31.70;44.00;;;;;;5004273;28;20464;-74
2021/07/07 10:08:54;;;;;;;2.80;1.10;;;31.70;44.20;;;;;;5004208;28;20471;-74
2021/07/07 10:11:22;;;;;;;1.20;1.10;;;31.70;44.60;;;;;;5003936;28;20464;-74
2021/07/07 10:13:51;;;;;;;3.00;1.10;;;31.90;44.40;;;;;;5004250;28;20433;-74
2021/07/07 10:16:19;;;;;;;1.73;1.10;;;31.80;44.30;;;;;;5004540;28;20453;-74
2021/07/07 10:18:47;;;;;;;3.53;1.13;;;31.70;44.50;;;;;;5004380;28;20441;-74
2021/07/07 10:21:15;;;;;;;1.90;0.90;;;31.70;44.40;;;;;;5004042;28;20507;-74
2021/07/07 10:23:43;;;;;;;1.27;0.90;;;31.70;44.50;;;;;;5004064;28;20429;-74
2021/07/07 10:26:11;;;;;;;1.90;1.20;;;31.70;44.50;;;;;;5004671;28;20466;-74
2021/07/07 10:28:39;;;;;;;1.13;1.00;;;31.70;44.50;;;;;;5004191;28;20487;-73
2021/07/07 10:31:08;;;;;;;1.27;1.10;;;31.60;44.30;;;;;;5013943;28;20471;-74
2021/07/07 10:33:37;;;;;;;1.53;1.07;;;31.60;44.40;;;;;;5016035;28;20431;-74
2021/07/07 10:36:22;;;;;;;2.93;1.20;;;31.60;45.10;;;;;;5013484;28;20440;-74
2021/07/07 10:38:56;;;;;;;2.10;1.30;;;31.50;44.80;;;;;;5014225;28;20606;-74
2021/07/07 10:42:02;;;;;;;1.53;1.03;;;31.70;44.90;;;;;;5012843;28;20476;-74
2021/07/07 10:44:52;;;;;;;1.00;1.00;;;31.60;44.50;;;;;;5012412;28;20514;-74
2021/07/07 10:47:39;;;;;;;1.43;0.90;;;31.70;44.80;;;;;;5013418;28;20439;-74
2021/07/07 10:50:08;;;;;;;0.90;0.90;;;31.60;44.60;;;;;;5004206;28;20483;-75
2021/07/07 10:52:46;;;;;;;1.13;1.03;;;31.70;45.10;;;;;;5003724;28;20466;-74
2021/07/07 10:55:16;;;;;;;1.30;1.20;;;31.90;45.10;;;;;;5004197;28;20444;-74
2021/07/07 10:57:46;;;;;;;0.97;0.90;;;31.70;44.50;;;;;;5006784;28;20453;-73
2021/07/07 11:00:32;;;;;;;4.60;1.20;;;31.60;44.60;;;;;;5008029;28;20445;-73
2021/07/07 11:03:20;;;;;;;3.23;1.33;;;31.70;44.50;;;;;;5007682;28;20484;-73
2021/07/07 11:05:48;;;;;;;1.20;1.10;;;31.70;44.40;;;;;;5007667;28;20494;-75
2021/07/07 11:08:18;;;;;;;1.37;0.90;;;31.80;44.90;;;;;;5008263;28;20440;-76
2021/07/07 11:10:53;;;;;;;1.00;0.80;;;32.10;44.70;;;;;;5008084;28;20523;-75
2021/07/07 11:13:21;;;;;;;1.00;1.00;;;32.10;44.10;;;;;;5008206;28;20478;-75
2021/07/07 11:15:49;;;;;;;1.13;1.00;;;32.00;44.30;;;;;;5016048;28;20495;-75
2021/07/07 11:18:23;;;;;;;3.27;1.20;;;32.00;44.40;;;;;;5018344;28;20460;-75
2021/07/07 11:21:00;;;;;;;2.10;1.33;;;31.90;44.50;;;;;;5018081;28;20464;-76
2021/07/07 11:23:28;;;;;;;1.10;1.00;;;31.90;44.40;;;;;;5020143;28;20466;-74
2021/07/07 11:25:56;;;;;;;2.00;1.40;;;31.80;44.10;;;;;;5017514;28;20479;-74
2021/07/07 11:28:24;;;;;;;1.33;1.23;;;31.70;43.90;;;;;;5015358;28;20439;-74
2021/07/07 11:30:52;;;;;;;3.57;1.70;;;31.70;43.80;;;;;;5007352;28;20456;-74
2021/07/07 11:33:21;;;;;;;6.80;1.60;;;31.60;44.40;;;;;;5007193;28;20432;-75
2021/07/07 11:35:50;;;;;;;5.53;1.97;;;31.40;44.60;;;;;;5007035;28;20432;-73
2021/07/07 11:38:23;;;;;;;5.67;1.80;;;31.20;44.60;;;;;;5007461;28;20498;-74
2021/07/07 11:40:53;;;;;;;2.53;2.00;;;31.10;44.70;;;;;;5006861;28;20434;-74
2021/07/07 11:43:24;;;;;;;4.03;2.07;;;31.00;44.70;;;;;;5006546;28;20500;-74
2021/07/07 11:45:55;;;;;;;5.67;2.10;;;31.00;44.80;;;;;;5006715;28;20457;-74
2021/07/07 11:48:27;;;;;;;4.87;2.13;;;30.90;44.80;;;;;;5006943;28;20515;-74
2021/07/07 11:50:57;;;;;;;2.93;2.03;;;30.80;44.70;;;;;;5006482;28;20502;-74
2021/07/07 11:53:36;;;;;;;4.80;1.80;;;30.80;44.80;;;;;;5017208;28;20471;-74
2021/07/07 11:56:05;;;;;;;2.13;1.80;;;31.40;46.30;;;;;;5016773;28;20465;-74
2021/07/07 11:58:44;;;;;;;8.67;2.10;;;32.70;44.20;;;;;;5014556;28;20527;-74
2021/07/07 12:01:16;;;;;;;9.17;2.17;;;33.40;41.30;;;;;;5013240;28;20478;-75
2021/07/07 12:03:54;;;;;;;3.03;1.70;;;32.90;40.60;;;;;;5016688;28;20491;-75
2021/07/07 12:06:29;;;;;;;2.80;1.80;;;32.50;41.10;;;;;;5007206;28;20512;-75
2021/07/07 12:08:58;;;;;;;2.60;2.00;;;32.20;41.60;;;;;;5025588;28;20486;-75
2021/07/07 12:11:26;;;;;;;5.03;1.73;;;31.90;42.10;;;;;;5026501;28;20486;-75
2021/07/07 12:13:55;;;;;;;4.40;2.20;;;31.80;42.60;;;;;;5026764;28;20443;-75
2021/07/07 12:16:28;;;;;;;2.20;1.83;;;32.30;43.90;;;;;;5013802;28;20422;-75
2021/07/07 12:18:59;;;;;;;4.20;1.80;;;33.40;42.20;;;;;;5006482;28;20433;-75
2021/07/07 12:21:41;;;;;;;4.60;2.03;;;34.10;40.30;;;;;;5006428;28;20474;-76
2021/07/07 12:24:10;;;;;;;3.43;1.90;;;34.30;38.50;;;;;;5005826;28;20465;-75
2021/07/07 12:26:39;;;;;;;8.13;2.20;;;34.00;38.30;;;;;;5005992;28;20490;-75
2021/07/07 12:29:08;;;;;;;7.33;2.40;;;33.50;38.90;;;;;;5006202;28;20559;-76
2021/07/07 12:31:38;;;;;;;5.60;2.30;;;33.10;39.70;;;;;;5020535;28;20447;-75
2021/07/07 12:34:08;;;;;;;5.07;1.93;;;32.70;40.40;;;;;;5026245;28;20436;-75
2021/07/07 12:36:37;;;;;;;6.77;2.67;;;32.40;41.10;;;;;;5025808;28;20451;-76
2021/07/07 12:39:13;;;;;;;3.70;1.87;;;32.10;41.60;;;;;;5026012;28;20471;-75
2021/07/07 12:41:43;;;;;;;5.00;1.93;;;31.90;42.10;;;;;;5025244;28;20447;-75
2021/07/07 12:44:12;;;;;;;5.83;2.27;;;31.70;42.30;;;;;;5028179;28;20471;-75
2021/07/07 12:46:53;;;;;;;1.90;1.80;;;31.50;42.60;;;;;;5037220;28;20434;-75
2021/07/07 12:49:37;;;;;;;2.30;2.07;;;31.40;42.40;;;;;;5028311;28;20434;-76
2021/07/07 12:52:19;;;;;;;1.93;1.83;;;31.30;42.40;;;;;;5035123;28;20441;-76
2021/07/07 12:54:59;;;;;;;2.63;2.10;;;31.30;42.60;;;;;;5025566;28;20451;-76
2021/07/07 12:57:41;;;;;;;5.37;2.33;;;31.30;42.80;;;;;;5025736;28;20526;-76
2021/07/07 13:00:11;;;;;;;2.30;1.80;;;31.50;43.10;;;;;;5025471;28;20547;-76